sensor_id;sensor_type;location;lat;lon;timestamp;pressure;altitude;pressure_sealevel;temperature;humidity
7832;BME280;3961;42.058;25.586;2023-04-01T00:00:16;63544.50;;;11.77;92.52
7832;BME280;3961;42.058;25.586;2023-04-01T00:02:42;63557.34;;;11.84;93.02
7832;BME280;3961;42.058;25.586;2023-04-01T00:05:09;63538.47;;;11.70;93.04
7832;BME280;3961;42.058;25.586;2023-04-01T00:07:39;63547.16;;;11.77;93.56
7832;BME280;3961;42.058;25.586;2023-04-01T00:10:10;63542.75;;;11.76;93.51
7832;BME280;3961;42.058;25.586;2023-04-01T00:12:36;63527.16;;;11.62;94.43
7832;BME280;3961;42.058;25.586;2023-04-01T00:15:03;63530.28;;;11.67;94.56
7832;BME280;3961;42.058;25.586;2023-04-01T00:17:29;63545.09;;;11.78;94.35
7832;BME280;3961;42.058;25.586;2023-04-01T00:19:56;63550.28;;;11.83;94.12
7832;BME280;3961;42.058;25.586;2023-04-01T00:22:22;63496.16;;;11.37;94.59
7832;BME280;3961;42.058;25.586;2023-04-01T00:24:48;63531.78;;;11.66;94.86
7832;BME280;3961;42.058;25.586;2023-04-01T00:27:14;63520.88;;;11.52;94.94
7832;BME280;3961;42.058;25.586;2023-04-01T00:29:47;63529.81;;;11.62;95.11
7832;BME280;3961;42.058;25.586;2023-04-01T00:32:14;63532.34;;;11.67;95.12
7832;BME280;3961;42.058;25.586;2023-04-01T00:34:40;63526.22;;;11.64;94.66
7832;BME280;3961;42.058;25.586;2023-04-01T00:37:07;63532.59;;;11.69;94.28
7832;BME280;3961;42.058;25.586;2023-04-01T00:39:34;63523.44;;;11.57;94.20
7832;BME280;3961;42.058;25.586;2023-04-01T00:42:00;63530.97;;;11.63;95.04
7832;BME280;3961;42.058;25.586;2023-04-01T00:44:32;63504.25;;;11.44;96.23
7832;BME280;3961;42.058;25.586;2023-04-01T00:46:59;63501.47;;;11.37;96.92
7832;BME280;3961;42.058;25.586;2023-04-01T00:49:29;63522.75;;;11.61;96.06
7832;BME280;3961;42.058;25.586;2023-04-01T00:51:59;63516.16;;;11.53;96.48
7832;BME280;3961;42.058;25.586;2023-04-01T00:54:27;63510.72;;;11.45;96.80
7832;BME280;3961;42.058;25.586;2023-04-01T00:57:00;63514.75;;;11.49;96.82
7832;BME280;3961;42.058;25.586;2023-04-01T00:59:45;63474.88;;;11.14;98.24
7832;BME280;3961;42.058;25.586;2023-04-01T01:02:13;63495.69;;;11.32;97.35
7832;BME280;3961;42.058;25.586;2023-04-01T01:04:39;63451.44;;;10.96;97.77
7832;BME280;3961;42.058;25.586;2023-04-01T01:10:18;63442.53;;;10.86;100.00
7832;BME280;3961;42.058;25.586;2023-04-01T01:15:37;63449.22;;;10.89;100.00
7832;BME280;3961;42.058;25.586;2023-04-01T01:24:26;63419.66;;;10.68;100.00
7832;BME280;3961;42.058;25.586;2023-04-01T01:27:07;63408.44;;;10.56;100.00
7832;BME280;3961;42.058;25.586;2023-04-01T01:32:38;63417.69;;;10.64;100.00
7832;BME280;3961;42.058;25.586;2023-04-01T01:35:27;63399.78;;;10.48;100.00
7832;BME280;3961;42.058;25.586;2023-04-01T01:38:03;63372.41;;;10.22;100.00
7832;BME280;3961;42.058;25.586;2023-04-01T01:40:31;63381.66;;;10.30;100.00
7832;BME280;3961;42.058;25.586;2023-04-01T01:43:03;63360.72;;;10.16;100.00
7832;BME280;3961;42.058;25.586;2023-04-01T01:45:30;63374.38;;;10.26;100.00
7832;BME280;3961;42.058;25.586;2023-04-01T01:47:58;63352.44;;;10.06;100.00
7832;BME280;3961;42.058;25.586;2023-04-01T01:50:26;63351.72;;;10.10;100.00
7832;BME280;3961;42.058;25.586;2023-04-01T01:53:01;63359.81;;;10.18;100.00
7832;BME280;3961;42.058;25.586;2023-04-01T01:57:52;63332.69;;;9.94;100.00
7832;BME280;3961;42.058;25.586;2023-04-01T02:00:19;63326.44;;;9.84;100.00
7832;BME280;3961;42.058;25.586;2023-04-01T02:02:47;63353.22;;;10.09;100.00
7832;BME280;3961;42.058;25.586;2023-04-01T02:05:19;63346.06;;;10.01;100.00
7832;BME280;3961;42.058;25.586;2023-04-01T02:07:54;63322.88;;;9.85;100.00
7832;BME280;3961;42.058;25.586;2023-04-01T02:10:25;63307.88;;;9.72;100.00
7832;BME280;3961;42.058;25.586;2023-04-01T02:12:54;63343.66;;;10.03;100.00
7832;BME280;3961;42.058;25.586;2023-04-01T02:15:24;63368.25;;;10.23;100.00
7832;BME280;3961;42.058;25.586;2023-04-01T02:17:53;63400.94;;;10.49;100.00
7832;BME280;3961;42.058;25.586;2023-04-01T02:20:22;63395.63;;;10.49;100.00
7832;BME280;3961;42.058;25.586;2023-04-01T02:22:53;63363.63;;;10.19;100.00
7832;BME280;3961;42.058;25.586;2023-04-01T02:25:29;63426.94;;;10.72;100.00
7832;BME280;3961;42.058;25.586;2023-04-01T02:27:57;63427.72;;;10.75;100.00
7832;BME280;3961;42.058;25.586;2023-04-01T02:30:26;63419.66;;;10.68;100.00
7832;BME280;3961;42.058;25.586;2023-04-01T02:32:53;63418.75;;;10.69;100.00
7832;BME280;3961;42.058;25.586;2023-04-01T02:35:19;63412.50;;;10.59;100.00
7832;BME280;3961;42.058;25.586;2023-04-01T02:37:46;63422.56;;;10.70;100.00
7832;BME280;3961;42.058;25.586;2023-04-01T02:40:15;63428.88;;;10.76;100.00
7832;BME280;3961;42.058;25.586;2023-04-01T02:42:41;63429.47;;;10.76;100.00
7832;BME280;3961;42.058;25.586;2023-04-01T02:45:08;63430.03;;;10.77;100.00
7832;BME280;3961;42.058;25.586;2023-04-01T02:47:33;63455.47;;;10.99;100.00
7832;BME280;3961;42.058;25.586;2023-04-01T02:49:59;63433.16;;;10.82;100.00
7832;BME280;3961;42.058;25.586;2023-04-01T02:52:25;63424.84;;;10.72;100.00
7832;BME280;3961;42.058;25.586;2023-04-01T02:54:50;63377.28;;;10.28;100.00
7832;BME280;3961;42.058;25.586;2023-04-01T02:57:16;63373.13;;;10.29;100.00
7832;BME280;3961;42.058;25.586;2023-04-01T02:59:41;63401.75;;;10.52;100.00
7832;BME280;3961;42.058;25.586;2023-04-01T03:02:07;63407.88;;;10.55;100.00
7832;BME280;3961;42.058;25.586;2023-04-01T03:04:33;63384.44;;;10.37;100.00
7832;BME280;3961;42.058;25.586;2023-04-01T03:06:58;63414.81;;;10.61;100.00
7832;BME280;3961;42.058;25.586;2023-04-01T03:09:24;63398.63;;;10.47;100.00
7832;BME280;3961;42.058;25.586;2023-04-01T03:11:49;63389.03;;;10.41;100.00
7832;BME280;3961;42.058;25.586;2023-04-01T03:14:15;63413.88;;;10.63;100.00
7832;BME280;3961;42.058;25.586;2023-04-01T03:16:40;63386.97;;;10.41;100.00
7832;BME280;3961;42.058;25.586;2023-04-01T03:19:05;63385.94;;;10.36;100.00
7832;BME280;3961;42.058;25.586;2023-04-01T03:21:31;63425.22;;;10.70;100.00
7832;BME280;3961;42.058;25.586;2023-04-01T03:23:56;63408.69;;;10.58;100.00
7832;BME280;3961;42.058;25.586;2023-04-01T03:26:22;63386.97;;;10.41;100.00
7832;BME280;3961;42.058;25.586;2023-04-01T03:28:47;63409.84;;;10.59;100.00
7832;BME280;3961;42.058;25.586;2023-04-01T03:31:13;63410.66;;;10.62;100.00
7832;BME280;3961;42.058;25.586;2023-04-01T03:33:40;63404.97;;;10.53;100.00
7832;BME280;3961;42.058;25.586;2023-04-01T03:36:05;63393.66;;;10.45;100.00
7832;BME280;3961;42.058;25.586;2023-04-01T03:38:33;63348.25;;;10.07;100.00
7832;BME280;3961;42.058;25.586;2023-04-01T03:40:58;63375.66;;;10.34;100.00
7832;BME280;3961;42.058;25.586;2023-04-01T03:43:24;63395.41;;;10.47;100.00
7832;BME280;3961;42.058;25.586;2023-04-01T03:45:51;63407.28;;;10.55;100.00
7832;BME280;3961;42.058;25.586;2023-04-01T03:48:17;63400.25;;;10.53;100.00
7832;BME280;3961;42.058;25.586;2023-04-01T03:50:45;63388.25;;;10.38;100.00
7832;BME280;3961;42.058;25.586;2023-04-01T03:53:11;63401.16;;;10.52;100.00
7832;BME280;3961;42.058;25.586;2023-04-01T03:55:37;63392.97;;;10.49;100.00
7832;BME280;3961;42.058;25.586;2023-04-01T03:58:03;63393.09;;;10.44;100.00
7832;BME280;3961;42.058;25.586;2023-04-01T04:00:29;63410.75;;;10.58;100.00
7832;BME280;3961;42.058;25.586;2023-04-01T04:02:55;63387.88;;;10.40;100.00
7832;BME280;3961;42.058;25.586;2023-04-01T04:05:22;63400.81;;;10.54;100.00
7832;BME280;3961;42.058;25.586;2023-04-01T04:07:48;63391.34;;;10.43;100.00
7832;BME280;3961;42.058;25.586;2023-04-01T04:10:14;63409.25;;;10.59;100.00
7832;BME280;3961;42.058;25.586;2023-04-01T04:12:39;63409.84;;;10.59;100.00
7832;BME280;3961;42.058;25.586;2023-04-01T04:15:06;63430.38;;;10.75;100.00
7832;BME280;3961;42.058;25.586;2023-04-01T04:17:32;63426.56;;;10.74;100.00
7832;BME280;3961;42.058;25.586;2023-04-01T04:19:57;63397.94;;;10.51;100.00
7832;BME280;3961;42.058;25.586;2023-04-01T04:22:23;63406.94;;;10.57;100.00
7832;BME280;3961;42.058;25.586;2023-04-01T04:24:48;63377.75;;;10.33;100.00
7832;BME280;3961;42.058;25.586;2023-04-01T04:27:14;63391.94;;;10.43;100.00
7832;BME280;3961;42.058;25.586;2023-04-01T04:29:40;63399.44;;;10.50;100.00
7832;BME280;3961;42.058;25.586;2023-04-01T04:32:05;63417.13;;;10.63;100.00
7832;BME280;3961;42.058;25.586;2023-04-01T04:34:31;63409.84;;;10.59;100.00
7832;BME280;3961;42.058;25.586;2023-04-01T04:36:56;63380.41;;;10.33;100.00
7832;BME280;3961;42.058;25.586;2023-04-01T04:39:22;63408.34;;;10.60;100.00
7832;BME280;3961;42.058;25.586;2023-04-01T04:41:47;63406.94;;;10.57;100.00
7832;BME280;3961;42.058;25.586;2023-04-01T04:44:13;63383.84;;;10.36;100.00
7832;BME280;3961;42.058;25.586;2023-04-01T04:46:39;63361.31;;;10.17;100.00
7832;BME280;3961;42.058;25.586;2023-04-01T04:49:05;63395.97;;;10.47;100.00
7832;BME280;3961;42.058;25.586;2023-04-01T04:51:31;63393.66;;;10.45;100.00
7832;BME280;3961;42.058;25.586;2023-04-01T04:54:00;63383.84;;;10.36;100.00
7832;BME280;3961;42.058;25.586;2023-04-01T04:56:25;63406.38;;;10.56;100.00
7832;BME280;3961;42.058;25.586;2023-04-01T04:58:51;63418.84;;;10.65;100.00
7832;BME280;3961;42.058;25.586;2023-04-01T05:01:18;63447.72;;;10.90;100.00
7832;BME280;3961;42.058;25.586;2023-04-01T05:03:44;63468.19;;;11.10;100.00
7832;BME280;3961;42.058;25.586;2023-04-01T05:06:12;63476.63;;;11.16;100.00
7832;BME280;3961;42.058;25.586;2023-04-01T05:08:39;63467.38;;;11.07;100.00
7832;BME280;3961;42.058;25.586;2023-04-01T05:11:07;63511.19;;;11.51;100.00
7832;BME280;3961;42.058;25.586;2023-04-01T05:13:37;63557.22;;;11.89;98.29
7832;BME280;3961;42.058;25.586;2023-04-01T05:16:03;63584.53;;;12.08;95.37
7832;BME280;3961;42.058;25.586;2023-04-01T05:18:28;63556.66;;;11.88;94.40
7832;BME280;3961;42.058;25.586;2023-04-01T05:20:55;63529.22;;;11.62;95.69
7832;BME280;3961;42.058;25.586;2023-04-01T05:23:21;63521.38;;;11.57;94.85
7832;BME280;3961;42.058;25.586;2023-04-01T05:25:48;63475.94;;;11.20;98.39
7832;BME280;3961;42.058;25.586;2023-04-01T05:28:14;63487.25;;;11.27;97.61
7832;BME280;3961;42.058;25.586;2023-04-01T05:30:41;63504.00;;;11.42;97.61
7832;BME280;3961;42.058;25.586;2023-04-01T05:33:08;63490.72;;;11.30;98.63
7832;BME280;3961;42.058;25.586;2023-04-01T05:35:34;63492.22;;;11.29;99.21
7832;BME280;3961;42.058;25.586;2023-04-01T05:37:59;63487.84;;;11.28;100.00
7832;BME280;3961;42.058;25.586;2023-04-01T05:40:25;63497.31;;;11.38;99.50
7832;BME280;3961;42.058;25.586;2023-04-01T05:42:50;63499.97;;;11.38;98.61
7832;BME280;3961;42.058;25.586;2023-04-01T05:45:16;63514.19;;;11.49;98.19
7832;BME280;3961;42.058;25.586;2023-04-01T05:47:41;63539.63;;;11.71;96.64
7832;BME280;3961;42.058;25.586;2023-04-01T05:50:09;63528.88;;;11.64;96.46
7832;BME280;3961;42.058;25.586;2023-04-01T05:52:36;63567.75;;;11.93;94.42
7832;BME280;3961;42.058;25.586;2023-04-01T05:55:02;63569.16;;;11.97;92.88
7832;BME280;3961;42.058;25.586;2023-04-01T05:57:28;63579.78;;;12.08;92.63
7832;BME280;3961;42.058;25.586;2023-04-01T05:59:53;63559.56;;;11.91;94.18
7832;BME280;3961;42.058;25.586;2023-04-01T06:02:19;63627.59;;;12.48;91.70
7832;BME280;3961;42.058;25.586;2023-04-01T06:04:45;63621.09;;;12.47;89.89
7832;BME280;3961;42.058;25.586;2023-04-01T06:07:15;63669.50;;;12.87;86.80
7832;BME280;3961;42.058;25.586;2023-04-01T06:09:42;63660.91;;;12.75;85.86
7832;BME280;3961;42.058;25.586;2023-04-01T06:12:20;63718.75;;;13.30;85.52
7832;BME280;3961;42.058;25.586;2023-04-01T06:39:26;63652.94;;;12.75;85.04
7832;BME280;3961;42.058;25.586;2023-04-01T06:55:41;63703.69;;;13.17;85.06
7832;BME280;3961;42.058;25.586;2023-04-01T06:58:27;63698.78;;;13.10;85.77
7832;BME280;3961;42.058;25.586;2023-04-01T07:00:57;63696.47;;;13.08;84.62
7832;BME280;3961;42.058;25.586;2023-04-01T07:03:33;63673.66;;;12.86;86.54
7832;BME280;3961;42.058;25.586;2023-04-01T07:06:06;63691.25;;;13.04;84.80
7832;BME280;3961;42.058;25.586;2023-04-01T07:08:37;63706.59;;;13.20;84.86
7832;BME280;3961;42.058;25.586;2023-04-01T07:11:09;63743.44;;;13.50;84.06
7832;BME280;3961;42.058;25.586;2023-04-01T07:19:35;63770.88;;;13.76;80.49
7832;BME280;3961;42.058;25.586;2023-04-01T07:22:14;63785.97;;;13.89;80.84
7832;BME280;3961;42.058;25.586;2023-04-01T07:24:44;63784.56;;;13.86;81.36
7832;BME280;3961;42.058;25.586;2023-04-01T07:27:12;63780.50;;;13.82;81.48
7832;BME280;3961;42.058;25.586;2023-04-01T07:29:38;63767.75;;;13.71;84.04
7832;BME280;3961;42.058;25.586;2023-04-01T07:46:03;63832.34;;;14.30;86.57
7832;BME280;3961;42.058;25.586;2023-04-01T07:56:11;63967.34;;;15.45;81.87
7832;BME280;3961;42.058;25.586;2023-04-01T08:01:16;63972.00;;;15.50;81.85
7832;BME280;3961;42.058;25.586;2023-04-01T08:06:45;64050.44;;;16.18;79.18
7832;BME280;3961;42.058;25.586;2023-04-01T08:09:23;64084.59;;;16.53;78.04
7832;BME280;3961;42.058;25.586;2023-04-01T08:20:32;64231.00;;;17.78;72.87
7832;BME280;3961;42.058;25.586;2023-04-01T08:26:04;64271.31;;;18.08;72.28
7832;BME280;3961;42.058;25.586;2023-04-01T08:28:40;64262.56;;;18.01;72.46
7832;BME280;3961;42.058;25.586;2023-04-01T08:33:40;64295.06;;;18.34;70.88
7832;BME280;3961;42.058;25.586;2023-04-01T08:38:44;64438.59;;;19.54;65.89
7832;BME280;3961;42.058;25.586;2023-04-01T09:00:30;64569.13;;;20.65;56.52
7832;BME280;3961;42.058;25.586;2023-04-01T09:37:17;64481.06;;;19.96;60.26
7832;BME280;3961;42.058;25.586;2023-04-01T09:45:01;64501.25;;;20.11;59.01
7832;BME280;3961;42.058;25.586;2023-04-01T09:47:51;64502.56;;;20.07;57.79
7832;BME280;3961;42.058;25.586;2023-04-01T09:50:35;64449.91;;;19.66;58.10
7832;BME280;3961;42.058;25.586;2023-04-01T09:53:14;64503.03;;;20.12;58.05
7832;BME280;3961;42.058;25.586;2023-04-01T09:55:56;64514.09;;;20.22;58.06
7832;BME280;3961;42.058;25.586;2023-04-01T10:07:03;64496.00;;;20.06;56.38
7832;BME280;3961;42.058;25.586;2023-04-01T10:20:40;64486.09;;;19.98;54.71
7832;BME280;3961;42.058;25.586;2023-04-01T10:37:27;64503.97;;;20.11;52.90
7832;BME280;3961;42.058;25.586;2023-04-01T10:42:50;64503.81;;;20.16;53.33
7832;BME280;3961;42.058;25.586;2023-04-01T10:55:35;64575.44;;;20.75;52.14
7832;BME280;3961;42.058;25.586;2023-04-01T11:21:14;64571.91;;;20.72;52.59
7832;BME280;3961;42.058;25.586;2023-04-01T11:23:54;64540.41;;;20.45;53.75
7832;BME280;3961;42.058;25.586;2023-04-01T11:29:15;64563.75;;;20.65;54.17
7832;BME280;3961;42.058;25.586;2023-04-01T11:32:17;64590.59;;;20.89;53.48
7832;BME280;3961;42.058;25.586;2023-04-01T11:34:55;64592.34;;;20.90;53.88
7832;BME280;3961;42.058;25.586;2023-04-01T11:42:57;64524.03;;;20.31;51.78
7832;BME280;3961;42.058;25.586;2023-04-01T12:10:20;64552.63;;;20.56;51.79
7832;BME280;3961;42.058;25.586;2023-04-01T12:12:58;64553.81;;;20.57;51.40
7832;BME280;3961;42.058;25.586;2023-04-01T12:15:36;64542.16;;;20.47;52.48
7832;BME280;3961;42.058;25.586;2023-04-01T12:18:30;64516.78;;;20.22;52.67
7832;BME280;3961;42.058;25.586;2023-04-01T12:26:30;64482.81;;;19.97;54.18
7832;BME280;3961;42.058;25.586;2023-04-01T12:34:53;64501.25;;;20.11;53.97
7832;BME280;3961;42.058;25.586;2023-04-01T12:43:05;64533.13;;;20.36;52.34
7832;BME280;3961;42.058;25.586;2023-04-01T12:45:54;64546.44;;;20.53;52.11
7832;BME280;3961;42.058;25.586;2023-04-01T13:05:13;64593.88;;;20.89;50.25
7832;BME280;3961;42.058;25.586;2023-04-01T13:07:47;64618.44;;;21.10;49.37
7832;BME280;3961;42.058;25.586;2023-04-01T13:10:38;64608.34;;;21.06;49.17
7832;BME280;3961;42.058;25.586;2023-04-01T13:29:36;64609.28;;;21.05;48.84
7832;BME280;3961;42.058;25.586;2023-04-01T13:41:06;64611.84;;;21.09;49.42
7832;BME280;3961;42.058;25.586;2023-04-01T13:43:59;64608.13;;;21.04;49.89
7832;BME280;3961;42.058;25.586;2023-04-01T13:46:47;64609.66;;;21.03;50.30
7832;BME280;3961;42.058;25.586;2023-04-01T14:08:47;64606.97;;;21.03;50.86
7832;BME280;3961;42.058;25.586;2023-04-01T14:11:22;64630.13;;;21.21;50.88
7832;BME280;3961;42.058;25.586;2023-04-01T14:17:10;64578.56;;;20.80;50.46
7832;BME280;3961;42.058;25.586;2023-04-01T14:30:40;64541.56;;;20.46;52.60
7832;BME280;3961;42.058;25.586;2023-04-01T14:33:21;64514.53;;;20.27;52.93
7832;BME280;3961;42.058;25.586;2023-04-01T14:36:17;64496.59;;;20.07;54.71
7832;BME280;3961;42.058;25.586;2023-04-01T14:39:06;64375.84;;;19.02;56.57
7832;BME280;3961;42.058;25.586;2023-04-01T14:45:12;64320.69;;;18.56;58.75
7832;BME280;3961;42.058;25.586;2023-04-01T14:47:59;64326.75;;;18.64;58.21
7832;BME280;3961;42.058;25.586;2023-04-01T14:50:53;64303.94;;;18.37;57.93
7832;BME280;3961;42.058;25.586;2023-04-01T14:55:58;64282.59;;;18.21;59.64
7832;BME280;3961;42.058;25.586;2023-04-01T14:58:39;64247.28;;;17.92;60.97
7832;BME280;3961;42.058;25.586;2023-04-01T15:03:55;64222.63;;;17.68;64.06
7832;BME280;3961;42.058;25.586;2023-04-01T15:15:18;64107.66;;;16.70;79.29
7832;BME280;3961;42.058;25.586;2023-04-01T15:21:19;64061.34;;;16.32;81.87
7832;BME280;3961;42.058;25.586;2023-04-01T15:24:19;64034.84;;;16.11;82.08
7832;BME280;3961;42.058;25.586;2023-04-01T15:35:03;64049.28;;;16.17;82.82
7832;BME280;3961;42.058;25.586;2023-04-01T15:40:24;64039.97;;;16.09;83.62
7832;BME280;3961;42.058;25.586;2023-04-01T15:43:05;63964.09;;;15.45;85.60
7832;BME280;3961;42.058;25.586;2023-04-01T15:48:33;64012.69;;;15.85;86.61
7832;BME280;3961;42.058;25.586;2023-04-01T15:56:39;63983.63;;;15.60;87.92
7832;BME280;3961;42.058;25.586;2023-04-01T16:02:07;64011.63;;;15.91;87.14
7832;BME280;3961;42.058;25.586;2023-04-01T16:16:04;63987.69;;;15.63;86.87
7832;BME280;3961;42.058;25.586;2023-04-01T16:21:38;63988.50;;;15.66;83.04
7832;BME280;3961;42.058;25.586;2023-04-01T16:32:12;64013.50;;;15.88;81.07
7832;BME280;3961;42.058;25.586;2023-04-01T16:34:45;64026.03;;;15.97;79.89
7832;BME280;3961;42.058;25.586;2023-04-01T16:37:36;64033.22;;;16.05;78.79
7832;BME280;3961;42.058;25.586;2023-04-01T16:42:55;64030.78;;;16.08;78.49
7832;BME280;3961;42.058;25.586;2023-04-01T16:45:34;64048.13;;;16.16;78.52
7832;BME280;3961;42.058;25.586;2023-04-01T16:48:15;64036.72;;;16.08;80.74
7832;BME280;3961;42.058;25.586;2023-04-01T16:50:46;64027.75;;;15.98;82.33
7832;BME280;3961;42.058;25.586;2023-04-01T16:56:13;64003.97;;;15.77;85.14
7832;BME280;3961;42.058;25.586;2023-04-01T16:58:56;64003.97;;;15.77;85.48
7832;BME280;3961;42.058;25.586;2023-04-01T17:01:42;63997.56;;;15.72;88.61
7832;BME280;3961;42.058;25.586;2023-04-01T17:04:22;64022.53;;;15.94;90.87
7832;BME280;3961;42.058;25.586;2023-04-01T17:06:55;64000.69;;;15.77;93.25
7832;BME280;3961;42.058;25.586;2023-04-01T17:12:25;63990.25;;;15.68;98.62
7832;BME280;3961;42.058;25.586;2023-04-01T17:23:47;63985.16;;;15.59;96.86
7832;BME280;3961;42.058;25.586;2023-04-01T17:28:44;63957.25;;;15.34;98.79
7832;BME280;3961;42.058;25.586;2023-04-01T17:33:58;63956.78;;;15.41;99.61
7832;BME280;3961;42.058;25.586;2023-04-01T17:44:36;63962.13;;;15.41;98.34
7832;BME280;3961;42.058;25.586;2023-04-01T17:49:41;63961.41;;;15.45;95.86
7832;BME280;3961;42.058;25.586;2023-04-01T18:05:56;63988.25;;;15.64;91.88
7832;BME280;3961;42.058;25.586;2023-04-01T18:08:33;63996.97;;;15.71;90.83
7832;BME280;3961;42.058;25.586;2023-04-01T18:22:15;63965.25;;;15.46;90.71
7832;BME280;3961;42.058;25.586;2023-04-01T18:24:45;63906.63;;;14.95;94.08
7832;BME280;3961;42.058;25.586;2023-04-01T18:27:29;63961.88;;;15.38;95.55
7832;BME280;3961;42.058;25.586;2023-04-01T18:30:26;63953.06;;;15.35;99.05
7832;BME280;3961;42.058;25.586;2023-04-01T18:33:23;63947.72;;;15.35;99.03
7832;BME280;3961;42.058;25.586;2023-04-01T18:35:54;63904.53;;;14.95;100.00
7832;BME280;3961;42.058;25.586;2023-04-01T18:38:33;63918.81;;;15.05;100.00
7832;BME280;3961;42.058;25.586;2023-04-01T18:49:21;63892.69;;;14.83;100.00
7832;BME280;3961;42.058;25.586;2023-04-01T18:54:29;63882.25;;;14.73;100.00
7832;BME280;3961;42.058;25.586;2023-04-01T18:57:13;63867.19;;;14.60;100.00
7832;BME280;3961;42.058;25.586;2023-04-01T18:59:56;63883.19;;;14.72;99.37
7832;BME280;3961;42.058;25.586;2023-04-01T19:05:34;63860.44;;;14.57;100.00
7832;BME280;3961;42.058;25.586;2023-04-01T19:08:27;63806.47;;;14.09;100.00
7832;BME280;3961;42.058;25.586;2023-04-01T19:11:24;63832.13;;;14.27;100.00
7832;BME280;3961;42.058;25.586;2023-04-01T19:19:29;63817.84;;;14.17;100.00
7832;BME280;3961;42.058;25.586;2023-04-01T19:35:47;63823.06;;;14.22;87.00
7832;BME280;3961;42.058;25.586;2023-04-01T19:38:31;63823.66;;;14.22;87.24
7832;BME280;3961;42.058;25.586;2023-04-01T19:43:52;63803.94;;;14.05;86.80
7832;BME280;3961;42.058;25.586;2023-04-01T19:51:48;63785.97;;;13.89;84.88
7832;BME280;3961;42.058;25.586;2023-04-01T20:08:24;63728.00;;;13.38;85.38
7832;BME280;3961;42.058;25.586;2023-04-01T20:13:47;63675.28;;;12.92;85.49
7832;BME280;3961;42.058;25.586;2023-04-01T20:16:17;63704.84;;;13.18;85.00
7832;BME280;3961;42.058;25.586;2023-04-01T20:18:58;63711.00;;;13.21;84.95
7832;BME280;3961;42.058;25.586;2023-04-01T20:21:36;63683.63;;;13.02;84.51
7832;BME280;3961;42.058;25.586;2023-04-01T20:24:20;63701.13;;;13.12;82.46
7832;BME280;3961;42.058;25.586;2023-04-01T20:26:54;63693.81;;;13.08;81.52
7832;BME280;3961;42.058;25.586;2023-04-01T20:37:18;63717.72;;;13.25;81.40
7832;BME280;3961;42.058;25.586;2023-04-01T20:42:34;63712.38;;;13.25;81.67
7832;BME280;3961;42.058;25.586;2023-04-01T20:50:31;63701.13;;;13.12;81.08
7832;BME280;3961;42.058;25.586;2023-04-01T20:53:12;63691.25;;;13.04;81.21
7832;BME280;3961;42.058;25.586;2023-04-01T21:01:41;63668.56;;;12.89;81.11
7832;BME280;3961;42.058;25.586;2023-04-01T21:07:09;63666.03;;;12.84;80.99
7832;BME280;3961;42.058;25.586;2023-04-01T21:17:51;63622.84;;;12.49;82.45
7832;BME280;3961;42.058;25.586;2023-04-01T21:29:09;63612.19;;;12.37;82.31
7832;BME280;3961;42.058;25.586;2023-04-01T21:42:49;63611.97;;;12.34;78.64
7832;BME280;3961;42.058;25.586;2023-04-01T21:45:34;63594.50;;;12.24;78.51
7832;BME280;3961;42.058;25.586;2023-04-01T22:04:42;63567.06;;;11.97;80.33
7832;BME280;3961;42.058;25.586;2023-04-01T22:07:17;63554.91;;;11.87;81.02
7832;BME280;3961;42.058;25.586;2023-04-01T22:12:13;63552.03;;;11.84;81.63
7832;BME280;3961;42.058;25.586;2023-04-01T22:28:07;63520.78;;;11.57;83.90
7832;BME280;3961;42.058;25.586;2023-04-01T22:30:51;63511.28;;;11.46;84.71
7832;BME280;3961;42.058;25.586;2023-04-01T22:35:57;63493.63;;;11.33;84.86
7832;BME280;3961;42.058;25.586;2023-04-01T22:47:20;63508.88;;;11.49;83.71
7832;BME280;3961;42.058;25.586;2023-04-01T22:49:56;63484.38;;;11.25;84.18
7832;BME280;3961;42.058;25.586;2023-04-01T22:52:32;63507.72;;;11.48;83.78
7832;BME280;3961;42.058;25.586;2023-04-01T22:55:10;63471.06;;;11.13;84.32
7832;BME280;3961;42.058;25.586;2023-04-01T22:57:44;63497.09;;;11.36;83.98
7832;BME280;3961;42.058;25.586;2023-04-01T23:00:20;63486.09;;;11.26;83.65
7832;BME280;3961;42.058;25.586;2023-04-01T23:05:27;63507.47;;;11.45;83.92
7832;BME280;3961;42.058;25.586;2023-04-01T23:10:51;63517.06;;;11.51;82.95
7832;BME280;3961;42.058;25.586;2023-04-01T23:13:24;63484.59;;;11.27;84.76
7832;BME280;3961;42.058;25.586;2023-04-01T23:15:53;63481.81;;;11.20;85.70
7832;BME280;3961;42.058;25.586;2023-04-01T23:18:27;63482.06;;;11.23;86.08
7832;BME280;3961;42.058;25.586;2023-04-01T23:26:56;63457.78;;;11.01;85.20
7832;BME280;3961;42.058;25.586;2023-04-01T23:29:25;63486.69;;;11.27;85.38
7832;BME280;3961;42.058;25.586;2023-04-01T23:32:01;63486.09;;;11.26;85.59
7832;BME280;3961;42.058;25.586;2023-04-01T23:34:29;63467.25;;;11.12;86.09
7832;BME280;3961;42.058;25.586;2023-04-01T23:36:59;63454.31;;;10.98;86.89
7832;BME280;3961;42.058;25.586;2023-04-01T23:39:37;63467.03;;;11.09;86.02
7832;BME280;3961;42.058;25.586;2023-04-01T23:42:07;63495.69;;;11.32;85.03
7832;BME280;3961;42.058;25.586;2023-04-01T23:44:33;63467.94;;;11.08;85.48
7832;BME280;3961;42.058;25.586;2023-04-01T23:47:02;63477.19;;;11.16;84.86
7832;BME280;3961;42.058;25.586;2023-04-01T23:49:41;63461.25;;;11.04;84.82
7832;BME280;3961;42.058;25.586;2023-04-01T23:52:31;63458.59;;;11.04;84.92
7832;BME280;3961;42.058;25.586;2023-04-01T23:55:21;63468.50;;;11.08;85.92
